Adak, AK

12:46 PM HDT on March 30, 2017 (GMT -0900)
Adak

Weather History for PADK - November, 2011

Change the Weather History Date:

Thursday, November 3, 2011

  Actual Average Record
Temperature  
Mean Temperature 40 °F -  
Max Temperature 42 °F 43 °F 53 °F (1964)
Min Temperature 39 °F 35 °F 29 °F (1983)
Degree Days  
Heating Degree Days 24    
Moisture  
Dew Point 35 °F    
Average Humidity 81    
Maximum Humidity 93    
Minimum Humidity 66    
Precipitation  
Precipitation 0.00 in - - ()
Sea Level Pressure  
Sea Level Pressure 29.68 in    
Wind  
Wind Speed 31 mph (West)    
Max Wind Speed 51 mph    
Max Gust Speed 63 mph    
Visibility 9 miles    
Events      
Averages and records for this station are not official NWS values.
T = Trace of Precipitation, MM = Missing Value Source: NWS Daily Summary

Daily Weather History Graph

Daily Weather History Graph

Search for Another Location

Airport or City:

Trip Planner

Search our weather history database for the weather conditions in past years. The results will help you decide how hot, cold, wet, or windy it might be!

Date:

Astronomy

Nov. 03, 2011 Rise Set
Actual Time 9:44 AM HDT 7:14 PM HDT
Civil Twilight 9:09 AM HDT 7:50 PM HDT
Nautical Twilight 8:29 AM HDT 8:30 PM HDT
Astronomical Twilight 7:49 AM HDT 9:09 PM HDT
Moon 4:26 PM HDT (11/3) 2:25 AM HDT (11/3)
Length of Visible Light 10h 41m
Length of Day
9h 29m
First Quarter, 62% of the Moon is Illuminated
Nov 3
First Quarter
Nov 10
Full
Nov 18
Last Quarter
Nov 24
New
Dec 1
First Quarter

Hourly Weather History & Observations

Time (HDT) Temp. Windchill Dew Point Humidity Pressure Visibility Wind Dir Wind Speed Gust Speed Precip Events Conditions
12:16 AM 42.8 °F 33.5 °F 41.0 °F 93% 29.12 in 4.0 mi West 23.0 mph 32.2 mph N/A   Overcast
12:36 AM 42.8 °F 32.9 °F 41.0 °F 93% 29.14 in 6.0 mi West 26.5 mph 33.4 mph N/A   Overcast
12:56 AM 42.8 °F 32.3 °F 39.2 °F 87% 29.15 in 7.0 mi West 29.9 mph 40.3 mph N/A   Overcast
1:16 AM 42.8 °F 31.9 °F 39.2 °F 87% 29.17 in 10.0 mi West 32.2 mph 39.1 mph N/A   Overcast
1:36 AM 42.8 °F 31.9 °F 39.2 °F 87% 29.19 in 9.0 mi West 32.2 mph 44.9 mph N/A   Overcast
1:56 AM 42.8 °F 31.3 °F 39.2 °F 87% 29.21 in 5.0 mi West 36.8 mph 50.6 mph N/A   Overcast
2:16 AM 42.8 °F 31.1 °F 39.2 °F 87% 29.22 in 2.5 mi West 38.0 mph 47.2 mph N/A   Overcast
2:36 AM 41.0 °F 28.5 °F 39.2 °F 93% 29.24 in 2.0 mi West 39.1 mph 49.5 mph N/A   Overcast
2:56 AM 41.0 °F 28.8 °F 39.2 °F 93% 29.25 in 2.0 mi West 36.8 mph 47.2 mph N/A   Overcast
3:16 AM 41.0 °F 29.1 °F 39.2 °F 93% 29.28 in 3.0 mi West 34.5 mph 50.6 mph N/A   Overcast
3:36 AM 41.0 °F 29.7 °F 37.4 °F 87% 29.30 in 9.0 mi West 31.1 mph 50.6 mph N/A   Overcast
3:56 AM 41.0 °F 28.2 °F 37.4 °F 87% 29.31 in 7.0 mi WNW 41.4 mph 55.2 mph N/A   Overcast
4:16 AM 41.0 °F 28.6 °F 37.4 °F 87% 29.34 in 8.0 mi WNW 38.0 mph 55.2 mph N/A   Overcast
4:36 AM 39.2 °F 26.0 °F 37.4 °F 93% 29.37 in 9.0 mi West 39.1 mph 56.4 mph N/A   Mostly Cloudy
4:56 AM 39.2 °F 25.8 °F 37.4 °F 93% 29.40 in 10.0 mi West 40.3 mph 54.1 mph N/A   Overcast
5:16 AM 39.2 °F 26.8 °F 35.6 °F 87% 29.43 in 10.0 mi West 33.4 mph 49.5 mph N/A   Overcast
5:36 AM 41.0 °F 28.8 °F 35.6 °F 81% 29.43 in 10.0 mi West 36.8 mph 55.2 mph N/A   Overcast
6:16 AM 39.2 °F 24.8 °F 35.6 °F 87% 29.47 in 10.0 mi West 48.3 mph 56.4 mph N/A   Mostly Cloudy
6:36 AM 39.2 °F 25.5 °F 35.6 °F 87% 29.48 in 5.0 mi West 42.6 mph 61.0 mph N/A   Overcast
6:56 AM 39.2 °F 24.5 °F 35.6 °F 87% 29.48 in 9.0 mi West 50.6 mph 62.1 mph N/A   Overcast
7:36 AM 39.2 °F 24.8 °F 35.6 °F 87% 29.51 in 9.0 mi West 48.3 mph 63.3 mph N/A   Mostly Cloudy
8:16 AM 39.2 °F 25.2 °F 35.6 °F 87% 29.57 in 8.0 mi West 44.9 mph 51.8 mph N/A   Overcast
8:36 AM 39.2 °F 26.6 °F 33.8 °F 81% 29.61 in 10.0 mi West 34.5 mph 47.2 mph N/A   Mostly Cloudy
8:56 AM 39.2 °F 27.0 °F 35.6 °F 87% 29.64 in 9.0 mi West 32.2 mph 44.9 mph N/A   Mostly Cloudy
9:16 AM 41.0 °F 29.0 °F 35.6 °F 81% 29.66 in 10.0 mi West 35.7 mph 49.5 mph N/A   Overcast
9:36 AM 41.0 °F 29.5 °F 32.0 °F 70% 29.68 in 10.0 mi West 32.2 mph 50.6 mph N/A   Mostly Cloudy
9:56 AM 39.2 °F 27.0 °F 33.8 °F 81% 29.70 in 10.0 mi West 32.2 mph 46.0 mph N/A   Mostly Cloudy
10:16 AM 39.2 °F 26.3 °F 33.8 °F 81% 29.70 in 6.0 mi West 36.8 mph 51.8 mph N/A   Mostly Cloudy
10:36 AM 39.2 °F 26.5 °F 33.8 °F 81% 29.71 in 10.0 mi West 35.7 mph 52.9 mph N/A   Partly Cloudy
10:56 AM 39.2 °F 26.3 °F 33.8 °F 81% 29.73 in 10.0 mi West 36.8 mph 48.3 mph N/A   Partly Cloudy
11:16 AM 39.2 °F 27.2 °F 33.8 °F 81% 29.77 in 10.0 mi West 31.1 mph 40.3 mph N/A   Mostly Cloudy
11:36 AM 41.0 °F 30.2 °F 33.8 °F 76% 29.79 in 10.0 mi West 27.6 mph 43.7 mph N/A   Mostly Cloudy
11:56 AM 41.0 °F 29.8 °F 33.8 °F 76% 29.80 in 10.0 mi West 29.9 mph 41.4 mph N/A   Partly Cloudy
12:16 PM 41.0 °F 29.3 °F 33.8 °F 76% 29.81 in 10.0 mi West 33.4 mph 47.2 mph N/A   Partly Cloudy
12:36 PM 41.0 °F 29.1 °F 33.8 °F 76% 29.83 in 10.0 mi West 34.5 mph 43.7 mph N/A   Partly Cloudy
12:56 PM 39.2 °F 26.8 °F 33.8 °F 81% 29.85 in 5.0 mi West 33.4 mph 44.9 mph N/A   Mostly Cloudy
1:16 PM 42.8 °F 33.1 °F 35.6 °F 76% 29.88 in 10.0 mi West 25.3 mph 40.3 mph N/A   Scattered Clouds
1:36 PM 41.0 °F 30.9 °F 35.6 °F 81% 29.89 in 8.0 mi West 24.2 mph 32.2 mph N/A   Mostly Cloudy
1:56 PM 42.8 °F 34.3 °F 33.8 °F 70% 29.90 in 10.0 mi West 19.6 mph 35.7 mph N/A   Partly Cloudy
2:16 PM 42.8 °F 33.3 °F 33.8 °F 70% 29.91 in 10.0 mi West 24.2 mph 34.5 mph N/A   Clear
2:36 PM 42.8 °F 33.8 °F 32.0 °F 66% 29.93 in 10.0 mi West 21.9 mph 32.2 mph N/A   Partly Cloudy
2:56 PM 42.8 °F 33.3 °F 33.8 °F 70% 29.93 in 10.0 mi West 24.2 mph 31.1 mph N/A   Scattered Clouds
3:16 PM 42.8 °F 33.5 °F 33.8 °F 70% 29.94 in 10.0 mi West 23.0 mph 36.8 mph N/A   Partly Cloudy
3:36 PM 42.8 °F 32.5 °F 33.8 °F 70% 29.95 in 10.0 mi West 28.8 mph 36.8 mph N/A   Partly Cloudy
3:56 PM 42.8 °F 33.8 °F 33.8 °F 70% 29.96 in 10.0 mi West 21.9 mph 31.1 mph N/A   Mostly Cloudy
4:16 PM 42.8 °F 34.8 °F 35.6 °F 76% 29.97 in 10.0 mi West 17.3 mph 21.9 mph N/A   Overcast
4:36 PM 41.0 °F 30.5 °F 33.8 °F 76% 29.98 in 10.0 mi West 26.5 mph 33.4 mph N/A   Overcast
4:56 PM 41.0 °F 30.2 °F 32.0 °F 70% 29.98 in 10.0 mi WSW 27.6 mph 36.8 mph N/A   Mostly Cloudy
5:16 PM 41.0 °F 30.9 °F 33.8 °F 76% 30.00 in 10.0 mi WSW 24.2 mph 32.2 mph N/A   Partly Cloudy
5:36 PM 41.0 °F 31.4 °F 32.0 °F 70% 30.01 in 10.0 mi West 21.9 mph 29.9 mph N/A   Clear
5:56 PM 41.0 °F 30.9 °F 32.0 °F 70% 30.01 in 10.0 mi West 24.2 mph 33.4 mph N/A   Clear
6:16 PM 39.2 °F 28.7 °F 33.8 °F 81% 30.02 in 10.0 mi West 23.0 mph 32.2 mph N/A   Clear
6:36 PM 39.2 °F 29.0 °F 33.8 °F 81% 30.02 in 10.0 mi West 21.9 mph 31.1 mph N/A   Partly Cloudy
6:56 PM 39.2 °F 28.7 °F 33.8 °F 81% 30.02 in 10.0 mi WSW 23.0 mph 29.9 mph N/A   Partly Cloudy
7:16 PM 39.2 °F 27.2 °F 33.8 °F 81% 30.02 in 10.0 mi WSW 31.1 mph 36.8 mph N/A   Clear
7:36 PM 39.2 °F 27.4 °F 33.8 °F 81% 30.03 in 10.0 mi WSW 29.9 mph 36.8 mph N/A   Partly Cloudy
7:56 PM 39.2 °F 27.8 °F 33.8 °F 81% 30.04 in 10.0 mi WSW 27.6 mph 33.4 mph N/A   Clear
8:16 PM 39.2 °F 29.3 °F 35.6 °F 87% 30.05 in 10.0 mi West 20.7 mph 33.4 mph N/A   Partly Cloudy
8:36 PM 39.2 °F 29.3 °F 35.6 °F 87% 30.06 in 10.0 mi WSW 20.7 mph 29.9 mph N/A   Mostly Cloudy
8:56 PM 39.2 °F 29.0 °F 35.6 °F 87% 30.06 in 10.0 mi WSW 21.9 mph 32.2 mph N/A   Overcast
9:16 PM 39.2 °F 29.3 °F 35.6 °F 87% 30.06 in 9.0 mi WSW 20.7 mph 25.3 mph N/A   Overcast
9:36 PM 39.2 °F 30.5 °F 37.4 °F 93% 30.07 in 9.0 mi WSW 16.1 mph - N/A   Overcast
9:56 PM 39.2 °F 29.6 °F 37.4 °F 93% 30.06 in 10.0 mi WSW 19.6 mph 27.6 mph N/A   Overcast
10:16 PM 42.8 °F 34.0 °F 39.2 °F 87% 30.05 in 8.0 mi SW 20.7 mph 29.9 mph N/A   Overcast
10:36 PM 42.8 °F 32.1 °F 39.2 °F 87% 30.04 in 5.0 mi WSW 31.1 mph 38.0 mph N/A   Overcast
10:56 PM 42.8 °F 31.1 °F 39.2 °F 87% 30.04 in 10.0 mi SW 38.0 mph 47.2 mph N/A   Overcast
11:16 PM 42.8 °F 31.0 °F 39.2 °F 87% 30.03 in 10.0 mi WSW 39.1 mph 49.5 mph N/A   Overcast
11:36 PM 42.8 °F 31.8 °F 39.2 °F 87% 30.04 in 10.0 mi WSW 33.4 mph 47.2 mph N/A   Overcast
11:56 PM 42.8 °F 32.3 °F 39.2 °F 87% 30.05 in 10.0 mi WSW 29.9 mph 35.7 mph N/A   Overcast